sensor_id;sensor_type;location;lat;lon;timestamp;P1;durP1;ratioP1;P2;durP2;ratioP2
53267;SDS011;39156;51.176;6.738;2022-10-16T00:01:51;33.67;;;31.45;;
53267;SDS011;39156;51.176;6.738;2022-10-16T00:04:16;32.92;;;31.00;;
53267;SDS011;39156;51.176;6.738;2022-10-16T00:06:42;35.28;;;33.25;;
53267;SDS011;39156;51.176;6.738;2022-10-16T00:09:08;34.47;;;32.10;;
53267;SDS011;39156;51.176;6.738;2022-10-16T00:11:34;35.33;;;32.92;;
53267;SDS011;39156;51.176;6.738;2022-10-16T00:14:02;32.08;;;30.35;;
53267;SDS011;39156;51.176;6.738;2022-10-16T00:16:32;33.63;;;31.92;;
53267;SDS011;39156;51.176;6.738;2022-10-16T00:18:59;33.40;;;31.60;;
53267;SDS011;39156;51.176;6.738;2022-10-16T00:21:25;33.88;;;32.08;;
53267;SDS011;39156;51.176;6.738;2022-10-16T00:23:54;33.65;;;31.80;;
53267;SDS011;39156;51.176;6.738;2022-10-16T00:26:27;33.47;;;31.67;;
53267;SDS011;39156;51.176;6.738;2022-10-16T00:28:55;33.60;;;31.70;;
53267;SDS011;39156;51.176;6.738;2022-10-16T00:31:22;33.63;;;31.60;;
53267;SDS011;39156;51.176;6.738;2022-10-16T00:33:48;32.50;;;30.60;;
53267;SDS011;39156;51.176;6.738;2022-10-16T00:36:16;32.47;;;30.58;;
53267;SDS011;39156;51.176;6.738;2022-10-16T00:38:44;34.15;;;32.17;;
53267;SDS011;39156;51.176;6.738;2022-10-16T00:41:19;34.50;;;32.70;;
53267;SDS011;39156;51.176;6.738;2022-10-16T00:43:48;32.72;;;30.92;;
53267;SDS011;39156;51.176;6.738;2022-10-16T00:49:09;33.10;;;31.10;;
53267;SDS011;39156;51.176;6.738;2022-10-16T00:51:42;32.90;;;31.10;;
53267;SDS011;39156;51.176;6.738;2022-10-16T00:54:16;33.33;;;31.50;;
53267;SDS011;39156;51.176;6.738;2022-10-16T00:56:46;33.90;;;32.00;;
53267;SDS011;39156;51.176;6.738;2022-10-16T00:59:18;33.17;;;31.42;;
53267;SDS011;39156;51.176;6.738;2022-10-16T01:01:49;33.10;;;31.38;;
53267;SDS011;39156;51.176;6.738;2022-10-16T01:04:15;33.72;;;31.95;;
53267;SDS011;39156;51.176;6.738;2022-10-16T01:14:56;33.10;;;31.40;;
53267;SDS011;39156;51.176;6.738;2022-10-16T01:17:30;35.72;;;33.78;;
53267;SDS011;39156;51.176;6.738;2022-10-16T01:20:11;34.03;;;32.17;;
53267;SDS011;39156;51.176;6.738;2022-10-16T01:25:51;32.28;;;30.55;;
53267;SDS011;39156;51.176;6.738;2022-10-16T01:31:29;32.63;;;30.90;;
53267;SDS011;39156;51.176;6.738;2022-10-16T01:34:10;32.20;;;30.50;;
53267;SDS011;39156;51.176;6.738;2022-10-16T01:36:55;32.80;;;31.00;;
53267;SDS011;39156;51.176;6.738;2022-10-16T01:39:29;31.80;;;30.10;;
53267;SDS011;39156;51.176;6.738;2022-10-16T01:42:01;32.42;;;30.73;;
53267;SDS011;39156;51.176;6.738;2022-10-16T01:44:44;33.45;;;31.65;;
53267;SDS011;39156;51.176;6.738;2022-10-16T01:47:12;33.60;;;31.75;;
53267;SDS011;39156;51.176;6.738;2022-10-16T01:49:39;32.40;;;30.70;;
53267;SDS011;39156;51.176;6.738;2022-10-16T01:54:36;31.92;;;30.02;;
53267;SDS011;39156;51.176;6.738;2022-10-16T01:57:04;35.63;;;33.72;;
53267;SDS011;39156;51.176;6.738;2022-10-16T01:59:33;33.85;;;31.95;;
53267;SDS011;39156;51.176;6.738;2022-10-16T02:02:06;32.60;;;30.80;;
53267;SDS011;39156;51.176;6.738;2022-10-16T02:04:39;34.25;;;32.35;;
53267;SDS011;39156;51.176;6.738;2022-10-16T02:07:11;33.28;;;31.38;;
53267;SDS011;39156;51.176;6.738;2022-10-16T02:09:37;33.07;;;31.37;;
53267;SDS011;39156;51.176;6.738;2022-10-16T02:15:02;34.30;;;32.40;;
53267;SDS011;39156;51.176;6.738;2022-10-16T02:17:28;34.42;;;32.58;;
53267;SDS011;39156;51.176;6.738;2022-10-16T02:19:54;32.88;;;31.17;;
53267;SDS011;39156;51.176;6.738;2022-10-16T02:22:28;33.55;;;31.75;;
53267;SDS011;39156;51.176;6.738;2022-10-16T02:27:41;33.13;;;31.42;;
53267;SDS011;39156;51.176;6.738;2022-10-16T02:30:28;32.92;;;31.23;;
53267;SDS011;39156;51.176;6.738;2022-10-16T02:33:02;32.83;;;31.10;;
53267;SDS011;39156;51.176;6.738;2022-10-16T02:35:32;32.08;;;30.00;;
53267;SDS011;39156;51.176;6.738;2022-10-16T02:37:59;34.05;;;32.35;;
53267;SDS011;39156;51.176;6.738;2022-10-16T02:40:26;31.80;;;30.00;;
53267;SDS011;39156;51.176;6.738;2022-10-16T02:42:53;33.17;;;31.10;;
53267;SDS011;39156;51.176;6.738;2022-10-16T02:45:20;30.90;;;29.30;;
53267;SDS011;39156;51.176;6.738;2022-10-16T02:47:47;32.58;;;30.73;;
53267;SDS011;39156;51.176;6.738;2022-10-16T02:50:13;31.55;;;29.95;;
53267;SDS011;39156;51.176;6.738;2022-10-16T02:52:39;33.53;;;31.83;;
53267;SDS011;39156;51.176;6.738;2022-10-16T02:55:05;32.25;;;30.65;;
53267;SDS011;39156;51.176;6.738;2022-10-16T02:57:31;35.63;;;33.83;;
53267;SDS011;39156;51.176;6.738;2022-10-16T02:59:57;32.08;;;30.48;;
53267;SDS011;39156;51.176;6.738;2022-10-16T03:02:23;33.25;;;31.55;;
53267;SDS011;39156;51.176;6.738;2022-10-16T03:04:49;31.33;;;29.63;;
53267;SDS011;39156;51.176;6.738;2022-10-16T03:07:14;31.98;;;30.30;;
53267;SDS011;39156;51.176;6.738;2022-10-16T03:09:40;33.03;;;31.13;;
53267;SDS011;39156;51.176;6.738;2022-10-16T03:12:06;32.17;;;30.58;;
53267;SDS011;39156;51.176;6.738;2022-10-16T03:14:32;30.80;;;29.30;;
53267;SDS011;39156;51.176;6.738;2022-10-16T03:16:58;31.40;;;29.80;;
53267;SDS011;39156;51.176;6.738;2022-10-16T03:19:24;32.58;;;30.83;;
53267;SDS011;39156;51.176;6.738;2022-10-16T03:21:50;32.38;;;30.75;;
53267;SDS011;39156;51.176;6.738;2022-10-16T03:24:15;34.28;;;32.47;;
53267;SDS011;39156;51.176;6.738;2022-10-16T03:26:41;33.13;;;31.20;;
53267;SDS011;39156;51.176;6.738;2022-10-16T03:29:07;34.33;;;32.47;;
53267;SDS011;39156;51.176;6.738;2022-10-16T03:31:32;31.60;;;30.00;;
53267;SDS011;39156;51.176;6.738;2022-10-16T03:33:58;32.65;;;31.05;;
53267;SDS011;39156;51.176;6.738;2022-10-16T03:36:24;33.47;;;31.63;;
53267;SDS011;39156;51.176;6.738;2022-10-16T03:38:50;33.88;;;32.08;;
53267;SDS011;39156;51.176;6.738;2022-10-16T03:41:15;32.95;;;31.25;;
53267;SDS011;39156;51.176;6.738;2022-10-16T03:43:41;33.05;;;31.35;;
53267;SDS011;39156;51.176;6.738;2022-10-16T03:46:07;32.85;;;31.08;;
53267;SDS011;39156;51.176;6.738;2022-10-16T03:48:33;32.55;;;30.85;;
53267;SDS011;39156;51.176;6.738;2022-10-16T03:50:58;33.47;;;31.77;;
53267;SDS011;39156;51.176;6.738;2022-10-16T03:53:24;32.65;;;30.85;;
53267;SDS011;39156;51.176;6.738;2022-10-16T03:55:50;32.33;;;30.65;;
53267;SDS011;39156;51.176;6.738;2022-10-16T03:58:16;32.30;;;30.60;;
53267;SDS011;39156;51.176;6.738;2022-10-16T04:00:42;33.22;;;31.55;;
53267;SDS011;39156;51.176;6.738;2022-10-16T04:05:35;32.88;;;31.17;;
53267;SDS011;39156;51.176;6.738;2022-10-16T04:08:01;33.47;;;31.73;;
53267;SDS011;39156;51.176;6.738;2022-10-16T04:10:27;33.33;;;31.52;;
53267;SDS011;39156;51.176;6.738;2022-10-16T04:12:52;33.75;;;32.05;;
53267;SDS011;39156;51.176;6.738;2022-10-16T04:15:20;34.08;;;32.08;;
53267;SDS011;39156;51.176;6.738;2022-10-16T04:17:49;31.92;;;30.33;;
53267;SDS011;39156;51.176;6.738;2022-10-16T04:20:16;33.08;;;31.20;;
53267;SDS011;39156;51.176;6.738;2022-10-16T04:22:42;32.63;;;30.92;;
53267;SDS011;39156;51.176;6.738;2022-10-16T04:25:09;32.22;;;30.52;;
53267;SDS011;39156;51.176;6.738;2022-10-16T04:27:36;32.58;;;30.92;;
53267;SDS011;39156;51.176;6.738;2022-10-16T04:30:02;33.25;;;31.40;;
53267;SDS011;39156;51.176;6.738;2022-10-16T04:32:28;34.15;;;32.42;;
53267;SDS011;39156;51.176;6.738;2022-10-16T04:34:54;35.13;;;33.33;;
53267;SDS011;39156;51.176;6.738;2022-10-16T04:37:26;32.28;;;30.58;;
53267;SDS011;39156;51.176;6.738;2022-10-16T04:39:55;33.45;;;31.75;;
53267;SDS011;39156;51.176;6.738;2022-10-16T04:42:20;31.05;;;29.45;;
53267;SDS011;39156;51.176;6.738;2022-10-16T04:44:46;32.78;;;30.88;;
53267;SDS011;39156;51.176;6.738;2022-10-16T04:47:12;33.10;;;31.30;;
53267;SDS011;39156;51.176;6.738;2022-10-16T04:49:38;30.35;;;28.75;;
53267;SDS011;39156;51.176;6.738;2022-10-16T04:52:04;31.80;;;30.20;;
53267;SDS011;39156;51.176;6.738;2022-10-16T04:54:30;32.75;;;31.08;;
53267;SDS011;39156;51.176;6.738;2022-10-16T04:56:56;31.80;;;30.10;;
53267;SDS011;39156;51.176;6.738;2022-10-16T04:59:22;31.25;;;29.63;;
53267;SDS011;39156;51.176;6.738;2022-10-16T05:01:48;33.22;;;31.52;;
53267;SDS011;39156;51.176;6.738;2022-10-16T05:04:14;32.42;;;30.73;;
53267;SDS011;39156;51.176;6.738;2022-10-16T05:06:40;33.55;;;31.85;;
53267;SDS011;39156;51.176;6.738;2022-10-16T05:09:07;33.95;;;32.25;;
53267;SDS011;39156;51.176;6.738;2022-10-16T05:11:34;35.40;;;33.60;;
53267;SDS011;39156;51.176;6.738;2022-10-16T05:14:00;33.15;;;31.45;;
53267;SDS011;39156;51.176;6.738;2022-10-16T05:16:26;32.60;;;30.80;;
53267;SDS011;39156;51.176;6.738;2022-10-16T05:18:51;33.78;;;31.95;;
53267;SDS011;39156;51.176;6.738;2022-10-16T05:21:17;33.50;;;31.42;;
53267;SDS011;39156;51.176;6.738;2022-10-16T05:23:44;31.73;;;30.13;;
53267;SDS011;39156;51.176;6.738;2022-10-16T05:26:10;33.22;;;31.52;;
53267;SDS011;39156;51.176;6.738;2022-10-16T05:28:35;31.10;;;29.50;;
53267;SDS011;39156;51.176;6.738;2022-10-16T05:31:08;32.35;;;30.55;;
53267;SDS011;39156;51.176;6.738;2022-10-16T05:33:35;34.28;;;32.47;;
53267;SDS011;39156;51.176;6.738;2022-10-16T05:36:04;34.35;;;32.65;;
53267;SDS011;39156;51.176;6.738;2022-10-16T05:38:33;32.50;;;30.90;;
53267;SDS011;39156;51.176;6.738;2022-10-16T05:41:02;33.42;;;31.65;;
53267;SDS011;39156;51.176;6.738;2022-10-16T05:43:29;33.30;;;31.48;;
53267;SDS011;39156;51.176;6.738;2022-10-16T05:45:56;33.05;;;31.35;;
53267;SDS011;39156;51.176;6.738;2022-10-16T05:48:28;33.85;;;32.15;;
53267;SDS011;39156;51.176;6.738;2022-10-16T05:51:01;32.17;;;30.48;;
53267;SDS011;39156;51.176;6.738;2022-10-16T05:53:32;33.47;;;31.77;;
53267;SDS011;39156;51.176;6.738;2022-10-16T05:56:00;33.08;;;31.30;;
53267;SDS011;39156;51.176;6.738;2022-10-16T05:58:34;33.47;;;31.77;;
53267;SDS011;39156;51.176;6.738;2022-10-16T06:01:03;32.10;;;30.38;;
53267;SDS011;39156;51.176;6.738;2022-10-16T06:03:38;32.03;;;30.40;;
53267;SDS011;39156;51.176;6.738;2022-10-16T06:06:08;32.45;;;30.75;;
53267;SDS011;39156;51.176;6.738;2022-10-16T06:08:39;33.42;;;31.63;;
53267;SDS011;39156;51.176;6.738;2022-10-16T06:11:07;33.80;;;32.08;;
53267;SDS011;39156;51.176;6.738;2022-10-16T06:13:36;34.15;;;32.45;;
53267;SDS011;39156;51.176;6.738;2022-10-16T06:18:30;33.28;;;31.38;;
53267;SDS011;39156;51.176;6.738;2022-10-16T06:20:56;32.17;;;30.58;;
53267;SDS011;39156;51.176;6.738;2022-10-16T06:23:22;32.50;;;30.70;;
53267;SDS011;39156;51.176;6.738;2022-10-16T06:25:48;31.73;;;29.80;;
53267;SDS011;39156;51.176;6.738;2022-10-16T06:28:17;32.90;;;31.20;;
53267;SDS011;39156;51.176;6.738;2022-10-16T06:30:42;32.58;;;30.88;;
53267;SDS011;39156;51.176;6.738;2022-10-16T06:33:09;31.73;;;30.08;;
53267;SDS011;39156;51.176;6.738;2022-10-16T06:35:35;32.13;;;30.52;;
53267;SDS011;39156;51.176;6.738;2022-10-16T06:38:01;30.80;;;29.15;;
53267;SDS011;39156;51.176;6.738;2022-10-16T06:40:27;31.98;;;30.38;;
53267;SDS011;39156;51.176;6.738;2022-10-16T06:42:54;31.77;;;30.10;;
53267;SDS011;39156;51.176;6.738;2022-10-16T06:45:20;32.80;;;31.10;;
53267;SDS011;39156;51.176;6.738;2022-10-16T06:47:46;30.55;;;28.70;;
53267;SDS011;39156;51.176;6.738;2022-10-16T06:50:11;31.88;;;30.13;;
53267;SDS011;39156;51.176;6.738;2022-10-16T06:52:37;31.52;;;29.92;;
53267;SDS011;39156;51.176;6.738;2022-10-16T06:55:03;32.70;;;30.92;;
53267;SDS011;39156;51.176;6.738;2022-10-16T06:57:29;32.92;;;30.95;;
53267;SDS011;39156;51.176;6.738;2022-10-16T06:59:55;31.20;;;29.50;;
53267;SDS011;39156;51.176;6.738;2022-10-16T07:02:20;30.45;;;28.90;;
53267;SDS011;39156;51.176;6.738;2022-10-16T07:04:46;32.83;;;31.13;;
53267;SDS011;39156;51.176;6.738;2022-10-16T07:07:12;30.27;;;28.73;;
53267;SDS011;39156;51.176;6.738;2022-10-16T07:09:38;32.28;;;30.48;;
53267;SDS011;39156;51.176;6.738;2022-10-16T07:12:05;32.67;;;30.88;;
53267;SDS011;39156;51.176;6.738;2022-10-16T07:14:30;34.10;;;32.30;;
53267;SDS011;39156;51.176;6.738;2022-10-16T07:16:56;33.05;;;31.35;;
53267;SDS011;39156;51.176;6.738;2022-10-16T07:19:22;31.85;;;29.95;;
53267;SDS011;39156;51.176;6.738;2022-10-16T07:21:48;34.35;;;31.95;;
53267;SDS011;39156;51.176;6.738;2022-10-16T07:24:14;33.00;;;31.27;;
53267;SDS011;39156;51.176;6.738;2022-10-16T07:26:42;30.75;;;29.05;;
53267;SDS011;39156;51.176;6.738;2022-10-16T07:29:17;32.55;;;30.85;;
53267;SDS011;39156;51.176;6.738;2022-10-16T07:31:45;32.30;;;30.50;;
53267;SDS011;39156;51.176;6.738;2022-10-16T07:34:12;32.20;;;30.27;;
53267;SDS011;39156;51.176;6.738;2022-10-16T07:36:40;30.65;;;29.00;;
53267;SDS011;39156;51.176;6.738;2022-10-16T07:39:06;33.10;;;31.15;;
53267;SDS011;39156;51.176;6.738;2022-10-16T07:41:32;32.22;;;30.52;;
53267;SDS011;39156;51.176;6.738;2022-10-16T07:43:58;31.40;;;29.77;;
53267;SDS011;39156;51.176;6.738;2022-10-16T07:46:25;30.88;;;29.27;;
53267;SDS011;39156;51.176;6.738;2022-10-16T07:48:51;31.00;;;29.10;;
53267;SDS011;39156;51.176;6.738;2022-10-16T07:51:19;28.80;;;27.20;;
53267;SDS011;39156;51.176;6.738;2022-10-16T07:53:47;28.25;;;26.65;;
53267;SDS011;39156;51.176;6.738;2022-10-16T07:56:14;28.95;;;27.48;;
53267;SDS011;39156;51.176;6.738;2022-10-16T07:58:41;27.08;;;25.58;;
53267;SDS011;39156;51.176;6.738;2022-10-16T08:01:15;26.55;;;25.15;;
53267;SDS011;39156;51.176;6.738;2022-10-16T08:03:43;27.27;;;25.80;;
53267;SDS011;39156;51.176;6.738;2022-10-16T08:06:11;25.67;;;24.27;;
53267;SDS011;39156;51.176;6.738;2022-10-16T08:08:40;25.95;;;24.45;;
53267;SDS011;39156;51.176;6.738;2022-10-16T08:11:06;25.27;;;23.88;;
53267;SDS011;39156;51.176;6.738;2022-10-16T08:13:32;24.98;;;23.63;;
53267;SDS011;39156;51.176;6.738;2022-10-16T08:15:58;24.60;;;23.30;;
53267;SDS011;39156;51.176;6.738;2022-10-16T08:18:24;24.20;;;22.90;;
53267;SDS011;39156;51.176;6.738;2022-10-16T08:20:56;24.55;;;23.25;;
53267;SDS011;39156;51.176;6.738;2022-10-16T08:23:25;24.67;;;23.38;;
53267;SDS011;39156;51.176;6.738;2022-10-16T08:25:52;24.05;;;22.75;;
53267;SDS011;39156;51.176;6.738;2022-10-16T08:28:28;24.42;;;23.13;;
53267;SDS011;39156;51.176;6.738;2022-10-16T08:30:53;23.80;;;22.48;;
53267;SDS011;39156;51.176;6.738;2022-10-16T08:33:21;25.33;;;23.83;;
53267;SDS011;39156;51.176;6.738;2022-10-16T08:35:50;23.75;;;22.45;;
53267;SDS011;39156;51.176;6.738;2022-10-16T08:38:18;23.92;;;22.63;;
53267;SDS011;39156;51.176;6.738;2022-10-16T08:48:49;23.40;;;22.20;;
53267;SDS011;39156;51.176;6.738;2022-10-16T08:53:54;22.65;;;21.45;;
53267;SDS011;39156;51.176;6.738;2022-10-16T08:56:40;23.27;;;22.08;;
53267;SDS011;39156;51.176;6.738;2022-10-16T09:01:42;23.52;;;22.23;;
53267;SDS011;39156;51.176;6.738;2022-10-16T09:07:09;23.50;;;22.20;;
53267;SDS011;39156;51.176;6.738;2022-10-16T09:10:00;23.80;;;22.50;;
53267;SDS011;39156;51.176;6.738;2022-10-16T09:12:48;23.73;;;22.48;;
53267;SDS011;39156;51.176;6.738;2022-10-16T09:20:39;24.25;;;22.73;;
53267;SDS011;39156;51.176;6.738;2022-10-16T09:23:09;23.25;;;22.05;;
53267;SDS011;39156;51.176;6.738;2022-10-16T09:25:49;24.00;;;22.67;;
53267;SDS011;39156;51.176;6.738;2022-10-16T09:28:16;23.25;;;21.95;;
53267;SDS011;39156;51.176;6.738;2022-10-16T09:30:43;22.85;;;21.65;;
53267;SDS011;39156;51.176;6.738;2022-10-16T09:33:10;23.85;;;22.45;;
53267;SDS011;39156;51.176;6.738;2022-10-16T09:38:28;23.55;;;22.35;;
53267;SDS011;39156;51.176;6.738;2022-10-16T09:41:04;23.42;;;22.23;;
53267;SDS011;39156;51.176;6.738;2022-10-16T09:46:33;23.42;;;22.13;;
53267;SDS011;39156;51.176;6.738;2022-10-16T09:49:02;23.38;;;22.17;;
53267;SDS011;39156;51.176;6.738;2022-10-16T09:51:46;23.08;;;21.80;;
53267;SDS011;39156;51.176;6.738;2022-10-16T09:57:13;24.45;;;23.05;;
53267;SDS011;39156;51.176;6.738;2022-10-16T09:59:51;24.27;;;22.80;;
53267;SDS011;39156;51.176;6.738;2022-10-16T10:02:30;24.77;;;23.45;;
53267;SDS011;39156;51.176;6.738;2022-10-16T10:05:00;25.55;;;24.17;;
53267;SDS011;39156;51.176;6.738;2022-10-16T10:07:33;25.20;;;23.80;;
53267;SDS011;39156;51.176;6.738;2022-10-16T10:10:21;25.25;;;23.77;;
53267;SDS011;39156;51.176;6.738;2022-10-16T10:12:53;24.65;;;23.35;;
53267;SDS011;39156;51.176;6.738;2022-10-16T10:16:03;25.95;;;24.35;;
53267;SDS011;39156;51.176;6.738;2022-10-16T10:18:31;25.48;;;23.70;;
53267;SDS011;39156;51.176;6.738;2022-10-16T10:21:02;24.83;;;23.52;;
53267;SDS011;39156;51.176;6.738;2022-10-16T10:23:39;25.85;;;24.45;;
53267;SDS011;39156;51.176;6.738;2022-10-16T10:26:13;25.50;;;24.17;;
53267;SDS011;39156;51.176;6.738;2022-10-16T10:37:15;25.88;;;24.45;;
53267;SDS011;39156;51.176;6.738;2022-10-16T10:40:28;26.88;;;25.48;;
53267;SDS011;39156;51.176;6.738;2022-10-16T10:46:16;27.83;;;26.33;;
53267;SDS011;39156;51.176;6.738;2022-10-16T10:49:32;26.63;;;25.27;;
53267;SDS011;39156;51.176;6.738;2022-10-16T10:55:10;29.05;;;27.45;;
53267;SDS011;39156;51.176;6.738;2022-10-16T11:00:39;28.25;;;26.75;;
53267;SDS011;39156;51.176;6.738;2022-10-16T11:06:33;27.88;;;26.40;;
53267;SDS011;39156;51.176;6.738;2022-10-16T11:09:14;29.17;;;27.58;;
53267;SDS011;39156;51.176;6.738;2022-10-16T11:11:45;28.27;;;26.83;;
53267;SDS011;39156;51.176;6.738;2022-10-16T11:14:21;28.40;;;27.00;;
53267;SDS011;39156;51.176;6.738;2022-10-16T11:17:21;28.90;;;27.40;;
53267;SDS011;39156;51.176;6.738;2022-10-16T11:20:00;28.48;;;26.92;;
53267;SDS011;39156;51.176;6.738;2022-10-16T11:22:36;28.38;;;26.88;;
53267;SDS011;39156;51.176;6.738;2022-10-16T11:25:25;28.23;;;26.63;;
53267;SDS011;39156;51.176;6.738;2022-10-16T11:30:28;28.40;;;26.90;;
53267;SDS011;39156;51.176;6.738;2022-10-16T11:33:04;28.17;;;26.67;;
53267;SDS011;39156;51.176;6.738;2022-10-16T11:35:44;28.88;;;27.27;;
53267;SDS011;39156;51.176;6.738;2022-10-16T11:41:48;30.48;;;28.60;;
53267;SDS011;39156;51.176;6.738;2022-10-16T11:47:07;28.92;;;27.40;;
53267;SDS011;39156;51.176;6.738;2022-10-16T11:49:47;28.85;;;27.30;;
53267;SDS011;39156;51.176;6.738;2022-10-16T11:52:40;28.65;;;27.15;;
53267;SDS011;39156;51.176;6.738;2022-10-16T11:55:26;30.38;;;28.88;;
53267;SDS011;39156;51.176;6.738;2022-10-16T11:58:45;28.90;;;27.40;;
53267;SDS011;39156;51.176;6.738;2022-10-16T12:03:36;28.80;;;27.20;;
53267;SDS011;39156;51.176;6.738;2022-10-16T12:06:27;28.20;;;26.70;;
53267;SDS011;39156;51.176;6.738;2022-10-16T12:09:21;28.17;;;26.70;;
53267;SDS011;39156;51.176;6.738;2022-10-16T12:11:53;29.27;;;27.65;;
53267;SDS011;39156;51.176;6.738;2022-10-16T12:14:20;29.95;;;28.25;;
53267;SDS011;39156;51.176;6.738;2022-10-16T12:17:02;27.95;;;26.42;;
53267;SDS011;39156;51.176;6.738;2022-10-16T12:20:53;27.90;;;26.40;;
53267;SDS011;39156;51.176;6.738;2022-10-16T12:22:50;28.08;;;26.67;;
53267;SDS011;39156;51.176;6.738;2022-10-16T12:27:56;29.92;;;28.42;;
53267;SDS011;39156;51.176;6.738;2022-10-16T12:30:34;30.05;;;28.38;;
53267;SDS011;39156;51.176;6.738;2022-10-16T12:33:05;29.10;;;27.60;;
53267;SDS011;39156;51.176;6.738;2022-10-16T12:35:45;29.20;;;27.42;;
53267;SDS011;39156;51.176;6.738;2022-10-16T12:38:19;27.90;;;26.45;;
53267;SDS011;39156;51.176;6.738;2022-10-16T12:41:00;28.95;;;27.35;;
53267;SDS011;39156;51.176;6.738;2022-10-16T12:48:35;29.03;;;27.53;;
53267;SDS011;39156;51.176;6.738;2022-10-16T12:53:58;29.35;;;27.65;;
53267;SDS011;39156;51.176;6.738;2022-10-16T12:59:54;28.95;;;27.33;;
53267;SDS011;39156;51.176;6.738;2022-10-16T13:06:13;28.92;;;27.42;;
53267;SDS011;39156;51.176;6.738;2022-10-16T13:08:56;28.65;;;26.88;;
53267;SDS011;39156;51.176;6.738;2022-10-16T13:14:49;28.25;;;26.75;;
53267;SDS011;39156;51.176;6.738;2022-10-16T13:17:35;29.58;;;28.08;;
53267;SDS011;39156;51.176;6.738;2022-10-16T13:28:58;28.05;;;26.55;;
53267;SDS011;39156;51.176;6.738;2022-10-16T13:31:26;29.08;;;27.58;;
53267;SDS011;39156;51.176;6.738;2022-10-16T13:33:52;29.58;;;27.88;;
53267;SDS011;39156;51.176;6.738;2022-10-16T13:36:25;29.17;;;27.67;;
53267;SDS011;39156;51.176;6.738;2022-10-16T13:39:02;29.90;;;28.20;;
53267;SDS011;39156;51.176;6.738;2022-10-16T13:41:42;30.00;;;28.48;;
53267;SDS011;39156;51.176;6.738;2022-10-16T13:44:12;29.58;;;28.00;;
53267;SDS011;39156;51.176;6.738;2022-10-16T13:46:44;29.20;;;27.60;;
53267;SDS011;39156;51.176;6.738;2022-10-16T13:49:16;30.67;;;29.07;;
53267;SDS011;39156;51.176;6.738;2022-10-16T13:51:54;29.10;;;27.60;;
53267;SDS011;39156;51.176;6.738;2022-10-16T13:54:23;28.58;;;27.08;;
53267;SDS011;39156;51.176;6.738;2022-10-16T13:56:51;28.70;;;27.20;;
53267;SDS011;39156;51.176;6.738;2022-10-16T13:59:22;29.13;;;27.52;;
53267;SDS011;39156;51.176;6.738;2022-10-16T14:02:49;28.48;;;26.95;;
53267;SDS011;39156;51.176;6.738;2022-10-16T14:05:01;30.55;;;29.05;;
53267;SDS011;39156;51.176;6.738;2022-10-16T14:07:30;28.40;;;27.00;;
53267;SDS011;39156;51.176;6.738;2022-10-16T14:10:05;29.48;;;27.90;;
53267;SDS011;39156;51.176;6.738;2022-10-16T14:12:53;30.13;;;28.42;;
53267;SDS011;39156;51.176;6.738;2022-10-16T14:15:27;30.08;;;28.58;;
53267;SDS011;39156;51.176;6.738;2022-10-16T14:17:55;29.27;;;27.58;;
53267;SDS011;39156;51.176;6.738;2022-10-16T14:20:24;29.33;;;27.73;;
53267;SDS011;39156;51.176;6.738;2022-10-16T14:23:00;27.95;;;26.55;;
53267;SDS011;39156;51.176;6.738;2022-10-16T14:25:30;29.23;;;27.63;;
53267;SDS011;39156;51.176;6.738;2022-10-16T14:28:02;29.77;;;28.08;;
53267;SDS011;39156;51.176;6.738;2022-10-16T14:30:31;29.30;;;27.70;;
53267;SDS011;39156;51.176;6.738;2022-10-16T14:33:01;29.92;;;28.08;;
53267;SDS011;39156;51.176;6.738;2022-10-16T14:35:43;30.67;;;29.13;;
53267;SDS011;39156;51.176;6.738;2022-10-16T14:38:18;30.00;;;28.40;;
53267;SDS011;39156;51.176;6.738;2022-10-16T14:40:48;29.73;;;28.00;;
53267;SDS011;39156;51.176;6.738;2022-10-16T14:43:18;29.65;;;28.15;;
53267;SDS011;39156;51.176;6.738;2022-10-16T14:45:54;29.85;;;28.17;;
53267;SDS011;39156;51.176;6.738;2022-10-16T14:48:22;29.05;;;27.35;;
53267;SDS011;39156;51.176;6.738;2022-10-16T14:50:48;30.95;;;29.35;;
53267;SDS011;39156;51.176;6.738;2022-10-16T14:53:14;30.05;;;28.50;;
53267;SDS011;39156;51.176;6.738;2022-10-16T14:55:40;29.30;;;27.38;;
53267;SDS011;39156;51.176;6.738;2022-10-16T14:58:10;29.58;;;27.88;;
53267;SDS011;39156;51.176;6.738;2022-10-16T15:00:48;29.35;;;27.77;;
53267;SDS011;39156;51.176;6.738;2022-10-16T15:03:14;29.70;;;28.10;;
53267;SDS011;39156;51.176;6.738;2022-10-16T15:05:43;29.63;;;27.88;;
53267;SDS011;39156;51.176;6.738;2022-10-16T15:08:09;29.47;;;27.90;;
53267;SDS011;39156;51.176;6.738;2022-10-16T15:10:37;30.00;;;28.40;;
53267;SDS011;39156;51.176;6.738;2022-10-16T15:13:06;30.08;;;28.33;;
53267;SDS011;39156;51.176;6.738;2022-10-16T15:15:37;29.05;;;27.45;;
53267;SDS011;39156;51.176;6.738;2022-10-16T15:18:10;30.15;;;28.55;;
53267;SDS011;39156;51.176;6.738;2022-10-16T15:20:37;32.88;;;30.73;;
53267;SDS011;39156;51.176;6.738;2022-10-16T15:23:14;29.63;;;27.92;;
53267;SDS011;39156;51.176;6.738;2022-10-16T15:25:44;27.88;;;26.48;;
53267;SDS011;39156;51.176;6.738;2022-10-16T15:28:21;30.95;;;29.35;;
53267;SDS011;39156;51.176;6.738;2022-10-16T15:30:49;29.38;;;27.67;;
53267;SDS011;39156;51.176;6.738;2022-10-16T15:33:21;28.15;;;26.60;;
53267;SDS011;39156;51.176;6.738;2022-10-16T15:35:53;29.98;;;28.10;;
53267;SDS011;39156;51.176;6.738;2022-10-16T15:38:20;28.50;;;26.85;;
53267;SDS011;39156;51.176;6.738;2022-10-16T15:40:47;29.98;;;28.42;;
53267;SDS011;39156;51.176;6.738;2022-10-16T15:43:14;29.90;;;28.25;;
53267;SDS011;39156;51.176;6.738;2022-10-16T15:45:40;30.58;;;28.88;;
53267;SDS011;39156;51.176;6.738;2022-10-16T15:48:06;31.63;;;29.90;;
53267;SDS011;39156;51.176;6.738;2022-10-16T15:50:36;30.23;;;28.50;;
53267;SDS011;39156;51.176;6.738;2022-10-16T15:53:03;29.15;;;27.55;;
53267;SDS011;39156;51.176;6.738;2022-10-16T15:55:29;30.33;;;28.77;;
53267;SDS011;39156;51.176;6.738;2022-10-16T15:57:54;31.47;;;29.77;;
53267;SDS011;39156;51.176;6.738;2022-10-16T16:00:21;29.00;;;27.47;;
53267;SDS011;39156;51.176;6.738;2022-10-16T16:02:49;32.00;;;30.20;;
53267;SDS011;39156;51.176;6.738;2022-10-16T16:05:19;30.05;;;28.35;;
53267;SDS011;39156;51.176;6.738;2022-10-16T16:07:46;28.95;;;27.45;;
53267;SDS011;39156;51.176;6.738;2022-10-16T16:10:13;30.55;;;28.90;;
53267;SDS011;39156;51.176;6.738;2022-10-16T16:12:39;31.80;;;30.20;;
53267;SDS011;39156;51.176;6.738;2022-10-16T16:15:05;31.10;;;29.30;;
53267;SDS011;39156;51.176;6.738;2022-10-16T16:17:33;29.90;;;28.30;;
53267;SDS011;39156;51.176;6.738;2022-10-16T16:19:59;29.77;;;28.10;;
53267;SDS011;39156;51.176;6.738;2022-10-16T16:22:25;27.75;;;26.25;;
53267;SDS011;39156;51.176;6.738;2022-10-16T16:24:51;30.83;;;29.23;;
53267;SDS011;39156;51.176;6.738;2022-10-16T16:27:17;29.33;;;27.73;;
53267;SDS011;39156;51.176;6.738;2022-10-16T16:29:44;29.00;;;27.50;;
53267;SDS011;39156;51.176;6.738;2022-10-16T16:32:11;30.10;;;28.50;;
53267;SDS011;39156;51.176;6.738;2022-10-16T16:34:37;31.23;;;29.63;;
53267;SDS011;39156;51.176;6.738;2022-10-16T16:37:03;32.10;;;30.40;;
53267;SDS011;39156;51.176;6.738;2022-10-16T16:39:28;29.57;;;27.97;;
53267;SDS011;39156;51.176;6.738;2022-10-16T16:41:57;31.70;;;29.97;;
53267;SDS011;39156;51.176;6.738;2022-10-16T16:44:27;30.27;;;28.67;;